createdAt,value
2018-12-29T00:00:56.698Z,-0.60
2018-12-29T00:03:24.571Z,-0.60
2018-12-29T00:05:54.901Z,-0.60
2018-12-29T00:08:26.907Z,-0.50
2018-12-29T00:10:58.558Z,-0.50
2018-12-29T00:13:26.409Z,-0.40
2018-12-29T00:15:56.535Z,-0.30
2018-12-29T00:18:24.342Z,-0.50
2018-12-29T00:20:52.059Z,-0.40
2018-12-29T00:23:19.639Z,-0.40
2018-12-29T00:25:47.878Z,-0.30
2018-12-29T00:28:15.474Z,-0.30
2018-12-29T00:30:43.265Z,-0.40
2018-12-29T00:33:10.932Z,-0.30
2018-12-29T00:35:38.729Z,-0.40
2018-12-29T00:38:09.261Z,-0.40
2018-12-29T00:40:37.177Z,-0.30
2018-12-29T00:43:04.810Z,-0.30
2018-12-29T00:45:32.398Z,-0.50
2018-12-29T00:48:02.099Z,-0.40
2018-12-29T00:50:31.900Z,-0.40
2018-12-29T00:52:59.480Z,-0.40
2018-12-29T00:55:28.845Z,-0.40
2018-12-29T00:57:56.640Z,-0.50
2018-12-29T01:00:24.235Z,-0.50
2018-12-29T01:02:52.241Z,-0.40
2018-12-29T01:05:20.160Z,-0.50
2018-12-29T01:07:49.258Z,-0.50
2018-12-29T01:10:17.103Z,-0.50
2018-12-29T01:12:44.769Z,-0.50
2018-12-29T01:15:12.361Z,-0.30
2018-12-29T01:17:40.408Z,-0.30
2018-12-29T01:20:10.821Z,-0.40
2018-12-29T01:22:38.402Z,-0.50
2018-12-29T01:25:07.184Z,-0.30
2018-12-29T01:27:34.778Z,-0.30
2018-12-29T01:30:04.419Z,-0.20
2018-12-29T01:32:32.013Z,-0.30
2018-12-29T01:34:59.621Z,-0.30
2018-12-29T01:37:29.105Z,-0.20
2018-12-29T01:39:56.905Z,-0.30
2018-12-29T01:42:24.604Z,-0.20
2018-12-29T01:44:52.173Z,-0.40
2018-12-29T01:47:21.244Z,-0.40
2018-12-29T01:49:49.092Z,-0.30
2018-12-29T01:52:16.710Z,-0.30
2018-12-29T01:54:44.370Z,-0.40
2018-12-29T01:57:11.995Z,-0.50
2018-12-29T01:59:39.600Z,-0.40
2018-12-29T02:02:07.299Z,-0.30
2018-12-29T02:04:34.906Z,-0.30
2018-12-29T02:07:02.500Z,-0.30
2018-12-29T02:09:30.150Z,-0.30
2018-12-29T02:11:57.726Z,-0.30
2018-12-29T02:14:25.610Z,-0.20
2018-12-29T02:16:54.749Z,-0.30
2018-12-29T02:19:22.380Z,-0.20
2018-12-29T02:21:49.931Z,-0.20
2018-12-29T02:24:18.698Z,-0.20
2018-12-29T02:26:47.557Z,-0.20
2018-12-29T02:29:15.166Z,-0.20
2018-12-29T02:31:43.053Z,-0.20
2018-12-29T02:34:12.410Z,-0.30
2018-12-29T02:36:40.020Z,-0.30
2018-12-29T02:39:07.787Z,-0.20
2018-12-29T02:41:35.387Z,-0.10
2018-12-29T02:44:03.973Z,-0.30
2018-12-29T02:46:31.640Z,-0.30
2018-12-29T02:48:59.354Z,-0.20
2018-12-29T02:51:28.390Z,-0.20
2018-12-29T02:53:57.234Z,-0.20
2018-12-29T02:56:24.872Z,-0.20
2018-12-29T02:58:54.696Z,-0.20
2018-12-29T03:01:22.323Z,-0.10
2018-12-29T03:03:49.927Z,-0.20
2018-12-29T03:06:17.603Z,-0.10
2018-12-29T03:08:47.117Z,-0.20
2018-12-29T03:11:15.144Z,-0.20
2018-12-29T03:13:42.932Z,-0.20
2018-12-29T03:16:10.788Z,-0.20
2018-12-29T03:18:38.580Z,-0.20
2018-12-29T03:21:06.250Z,-0.20
2018-12-29T03:23:33.955Z,-0.20
2018-12-29T03:26:01.675Z,-0.20
2018-12-29T03:28:30.314Z,-0.30
2018-12-29T03:30:58.073Z,-0.20
2018-12-29T03:33:25.638Z,-0.10
2018-12-29T03:35:53.319Z,-0.10
2018-12-29T03:38:21.210Z,-0.10
2018-12-29T03:40:48.798Z,0.00
2018-12-29T03:43:16.415Z,0.00
2018-12-29T03:45:49.125Z,-0.10
2018-12-29T03:48:13.872Z,-0.10
2018-12-29T03:50:41.768Z,-0.10
2018-12-29T03:53:10.029Z,-0.10
2018-12-29T03:55:37.644Z,-0.10
2018-12-29T03:58:05.254Z,-0.10
2018-12-29T04:00:34.190Z,0.00
2018-12-29T04:03:01.794Z,0.00
2018-12-29T04:05:29.431Z,-0.10
2018-12-29T04:07:57.075Z,0.00
2018-12-29T04:10:24.727Z,0.00
2018-12-29T04:12:55.496Z,0.00
2018-12-29T04:15:24.716Z,-0.10
2018-12-29T04:17:55.010Z,-0.10
2018-12-29T04:20:22.612Z,-0.10
2018-12-29T04:22:51.288Z,-0.10
2018-12-29T04:25:24.128Z,-0.10
2018-12-29T04:27:51.717Z,0.00
2018-12-29T04:30:20.738Z,0.10
2018-12-29T04:32:48.478Z,0.00
2018-12-29T04:35:16.321Z,0.00
2018-12-29T04:37:43.929Z,0.10
2018-12-29T04:40:11.583Z,0.10
2018-12-29T04:42:39.165Z,0.10
2018-12-29T04:45:07.014Z,-0.10
2018-12-29T04:47:34.679Z,-0.10
2018-12-29T04:50:02.293Z,0.00
2018-12-29T04:52:30.012Z,0.00
2018-12-29T04:54:57.719Z,0.10
2018-12-29T04:57:25.315Z,0.00
2018-12-29T04:59:53.125Z,0.00
2018-12-29T05:02:20.692Z,0.00
2018-12-29T05:04:48.280Z,-0.10
2018-12-29T05:07:16.106Z,-0.10
2018-12-29T05:09:45.166Z,-0.10
2018-12-29T05:12:12.803Z,-0.10
2018-12-29T05:14:40.694Z,0.00
2018-12-29T05:17:08.350Z,0.00
2018-12-29T05:19:36.051Z,-0.10
2018-12-29T05:22:03.946Z,-0.10
2018-12-29T05:24:32.801Z,-0.10
2018-12-29T05:27:02.421Z,-0.10
2018-12-29T05:29:30.323Z,-0.20
2018-12-29T05:31:57.960Z,-0.10
2018-12-29T05:34:26.030Z,0.00
2018-12-29T05:36:54.216Z,0.00
2018-12-29T05:39:21.785Z,-0.10
2018-12-29T05:41:49.405Z,-0.10
2018-12-29T05:44:17.297Z,0.00
2018-12-29T05:46:44.941Z,-0.20
2018-12-29T05:49:13.860Z,-0.20
2018-12-29T05:51:41.606Z,-0.20
2018-12-29T05:54:09.201Z,-0.10
2018-12-29T05:56:37.602Z,-0.10
2018-12-29T05:59:05.234Z,-0.10
2018-12-29T06:01:32.842Z,-0.10
2018-12-29T06:04:00.486Z,-0.10
2018-12-29T06:06:28.382Z,0.00
2018-12-29T06:08:56.060Z,-0.10
2018-12-29T06:11:23.698Z,-0.10
2018-12-29T06:13:52.469Z,-0.10
2018-12-29T06:16:20.082Z,-0.20
2018-12-29T06:18:47.687Z,-0.20
2018-12-29T06:21:15.437Z,-0.10
2018-12-29T06:23:43.043Z,-0.10
2018-12-29T06:26:10.645Z,-0.10
2018-12-29T06:28:38.492Z,-0.20
2018-12-29T06:31:06.107Z,-0.10
2018-12-29T06:33:33.711Z,-0.10
2018-12-29T06:36:04.400Z,-0.20
2018-12-29T06:38:33.759Z,-0.20
2018-12-29T06:41:01.348Z,-0.20
2018-12-29T06:43:29.039Z,-0.10
2018-12-29T06:45:56.674Z,-0.20
2018-12-29T06:48:24.288Z,-0.20
2018-12-29T06:50:52.143Z,-0.20
2018-12-29T06:53:19.734Z,-0.30
2018-12-29T06:55:47.354Z,-0.20
2018-12-29T06:58:15.151Z,-0.20
2018-12-29T07:00:42.814Z,-0.10
2018-12-29T07:03:11.516Z,-0.10
2018-12-29T07:05:39.238Z,-0.20
2018-12-29T07:08:06.847Z,-0.20
2018-12-29T07:10:34.450Z,-0.20
2018-12-29T07:13:02.195Z,-0.20
2018-12-29T07:15:29.810Z,-0.10
2018-12-29T07:17:57.614Z,-0.10
2018-12-29T07:20:29.425Z,-0.10
2018-12-29T07:22:57.040Z,-0.10
2018-12-29T07:25:24.861Z,-0.10
2018-12-29T07:27:52.844Z,0.00
2018-12-29T07:30:22.193Z,0.00
2018-12-29T07:32:49.810Z,0.10
2018-12-29T07:35:17.534Z,-0.10
2018-12-29T07:37:45.178Z,0.00
2018-12-29T07:40:13.916Z,0.10
2018-12-29T07:42:41.624Z,0.10
2018-12-29T07:45:09.378Z,0.10
2018-12-29T07:47:40.577Z,0.10
2018-12-29T07:50:08.613Z,0.00
2018-12-29T07:52:36.313Z,0.10
2018-12-29T07:55:04.627Z,0.00
2018-12-29T07:57:32.306Z,0.10
2018-12-29T08:00:00.019Z,0.10
2018-12-29T08:02:27.597Z,0.10
2018-12-29T08:04:55.551Z,0.20
2018-12-29T08:07:23.115Z,0.20
2018-12-29T08:09:50.907Z,0.10
2018-12-29T08:12:18.706Z,0.20
2018-12-29T08:14:46.294Z,0.10
2018-12-29T08:17:15.117Z,0.10
2018-12-29T08:19:45.217Z,0.10
2018-12-29T08:22:12.846Z,0.10
2018-12-29T08:24:41.024Z,0.20
2018-12-29T08:27:08.848Z,0.00
2018-12-29T08:29:36.459Z,0.10
2018-12-29T08:32:04.607Z,0.00
2018-12-29T08:34:32.510Z,0.00
2018-12-29T08:37:00.305Z,0.10
2018-12-29T08:39:27.953Z,0.10
2018-12-29T08:41:55.833Z,0.10
2018-12-29T08:44:23.659Z,0.20
2018-12-29T08:46:54.100Z,0.10
2018-12-29T08:49:21.958Z,0.20
2018-12-29T08:51:49.641Z,0.00
2018-12-29T08:54:17.425Z,0.10
2018-12-29T08:56:45.158Z,0.10
2018-12-29T08:59:12.778Z,0.20
2018-12-29T09:01:40.669Z,0.20
2018-12-29T09:04:08.438Z,0.40
2018-12-29T09:06:36.235Z,0.30
2018-12-29T09:09:05.816Z,0.30
2018-12-29T09:11:36.458Z,0.30
2018-12-29T09:14:04.294Z,0.20
2018-12-29T09:16:31.898Z,0.20
2018-12-29T09:18:59.616Z,0.30
2018-12-29T09:21:27.182Z,0.30
2018-12-29T09:23:54.816Z,0.30
2018-12-29T09:26:22.611Z,0.30
2018-12-29T09:28:50.463Z,0.30
2018-12-29T09:31:18.237Z,0.30
2018-12-29T09:33:47.055Z,0.30
2018-12-29T09:36:14.685Z,0.40
2018-12-29T09:38:42.336Z,0.30
2018-12-29T09:41:09.979Z,0.30
2018-12-29T09:43:38.123Z,0.40
2018-12-29T09:46:05.759Z,0.40
2018-12-29T09:48:33.657Z,0.40
2018-12-29T09:51:01.254Z,0.40
2018-12-29T09:53:28.854Z,0.30
2018-12-29T09:55:56.797Z,0.50
2018-12-29T09:58:24.902Z,0.50
2018-12-29T10:00:53.908Z,0.40
2018-12-29T10:03:23.608Z,0.40
2018-12-29T10:05:51.176Z,0.40
2018-12-29T10:08:18.788Z,0.40
2018-12-29T10:10:46.867Z,0.40
2018-12-29T10:13:14.587Z,0.50
2018-12-29T10:15:42.221Z,0.50
2018-12-29T10:18:09.866Z,0.50
2018-12-29T10:20:39.665Z,0.50
2018-12-29T10:23:09.207Z,0.50
2018-12-29T10:25:37.187Z,0.50
2018-12-29T10:28:04.938Z,0.50
2018-12-29T10:30:35.450Z,0.50
2018-12-29T10:33:03.155Z,0.40
2018-12-29T10:35:30.768Z,0.50
2018-12-29T10:37:58.396Z,0.50
2018-12-29T10:40:26.277Z,0.50
2018-12-29T10:42:53.906Z,0.60
2018-12-29T10:45:21.549Z,0.60
2018-12-29T10:47:49.535Z,0.60
2018-12-29T10:50:17.134Z,0.50
2018-12-29T10:52:44.812Z,0.60
2018-12-29T10:55:12.661Z,0.70
2018-12-29T10:57:42.527Z,0.90
2018-12-29T11:00:10.119Z,0.70
2018-12-29T11:02:40.188Z,0.90
2018-12-29T11:05:09.388Z,0.80
2018-12-29T11:07:37.211Z,0.90
2018-12-29T11:10:05.023Z,0.70
2018-12-29T11:12:32.640Z,0.80
2018-12-29T11:15:00.299Z,0.90
2018-12-29T11:17:28.309Z,0.80
2018-12-29T11:19:55.958Z,0.80
2018-12-29T11:22:23.629Z,0.80
2018-12-29T11:24:51.293Z,0.70
2018-12-29T11:27:18.972Z,0.80
2018-12-29T11:29:46.762Z,0.90
2018-12-29T11:32:25.246Z,0.80
2018-12-29T11:34:52.909Z,0.80
2018-12-29T11:37:20.780Z,0.80
2018-12-29T11:39:48.558Z,0.90
2018-12-29T11:42:16.162Z,0.80
2018-12-29T11:44:43.817Z,0.80
2018-12-29T11:47:14.242Z,0.90
2018-12-29T11:49:41.846Z,0.90
2018-12-29T11:52:09.446Z,0.70
2018-12-29T11:54:37.768Z,0.70
2018-12-29T11:57:10.609Z,0.60
2018-12-29T11:59:38.747Z,0.70
2018-12-29T12:02:08.707Z,0.80
2018-12-29T12:04:38.561Z,0.80
2018-12-29T12:07:06.723Z,0.90
2018-12-29T12:09:39.736Z,1.00
2018-12-29T12:12:08.775Z,0.80
2018-12-29T12:14:38.775Z,0.80
2018-12-29T12:17:06.929Z,0.80
2018-12-29T12:19:34.844Z,0.80
2018-12-29T12:22:02.713Z,0.90
2018-12-29T12:24:30.488Z,0.80
2018-12-29T12:26:59.793Z,0.90
2018-12-29T12:29:32.369Z,0.90
2018-12-29T12:32:02.244Z,0.60
2018-12-29T12:34:29.982Z,0.50
2018-12-29T12:37:00.728Z,0.60
2018-12-29T12:39:29.684Z,0.70
2018-12-29T12:41:57.308Z,0.80
2018-12-29T12:44:24.947Z,0.80
2018-12-29T12:46:55.371Z,0.80
2018-12-29T12:49:23.342Z,0.90
2018-12-29T12:51:50.987Z,0.70
2018-12-29T12:54:18.838Z,0.80
2018-12-29T12:56:46.491Z,0.70
2018-12-29T12:59:14.389Z,0.70
2018-12-29T13:01:45.322Z,0.80
2018-12-29T13:04:13.121Z,0.70
2018-12-29T13:06:42.688Z,0.70
2018-12-29T13:09:10.855Z,0.60
2018-12-29T13:11:38.608Z,0.60
2018-12-29T13:14:06.668Z,0.50
2018-12-29T13:16:36.745Z,0.60
2018-12-29T13:19:04.345Z,0.60
2018-12-29T13:21:35.782Z,0.60
2018-12-29T13:24:03.740Z,0.60
2018-12-29T13:26:34.390Z,0.70
2018-12-29T13:29:02.054Z,0.70
2018-12-29T13:31:29.828Z,0.70
2018-12-29T13:33:57.727Z,0.70
2018-12-29T13:36:25.377Z,0.70
2018-12-29T13:38:56.356Z,0.70
2018-12-29T13:41:26.569Z,0.80
2018-12-29T13:43:54.237Z,1.00
2018-12-29T13:46:25.713Z,1.00
2018-12-29T13:48:53.309Z,1.10
2018-12-29T13:51:21.324Z,1.10
2018-12-29T13:53:49.343Z,1.00
2018-12-29T13:56:17.233Z,1.00
2018-12-29T13:58:44.770Z,1.10
2018-12-29T14:01:17.474Z,1.10
2018-12-29T14:03:45.111Z,1.10
2018-12-29T14:06:12.708Z,1.00
2018-12-29T14:08:40.939Z,1.00
2018-12-29T14:11:08.793Z,0.90
2018-12-29T14:13:36.443Z,1.00
2018-12-29T14:16:14.351Z,1.00
2018-12-29T14:18:42.175Z,1.10
2018-12-29T14:21:10.374Z,1.00
2018-12-29T14:23:38.979Z,1.00
2018-12-29T14:26:06.749Z,0.90
2018-12-29T14:28:34.670Z,1.00
2018-12-29T14:31:03.712Z,1.00
2018-12-29T14:33:32.549Z,1.00
2018-12-29T14:36:07.911Z,1.00
2018-12-29T14:38:39.165Z,1.10
2018-12-29T14:41:11.420Z,1.10
2018-12-29T14:43:46.157Z,1.10
2018-12-29T14:46:14.810Z,1.00
2018-12-29T14:48:50.342Z,1.10
2018-12-29T14:51:19.592Z,1.10
2018-12-29T14:53:50.010Z,1.20
2018-12-29T14:56:24.496Z,1.20
2018-12-29T14:59:00.559Z,1.30
2018-12-29T15:01:36.753Z,1.20
2018-12-29T15:04:05.675Z,1.20
2018-12-29T15:06:35.661Z,1.30
2018-12-29T15:09:07.710Z,1.20
2018-12-29T15:11:35.370Z,1.10
2018-12-29T15:14:03.076Z,1.10
2018-12-29T15:16:31.224Z,1.10
2018-12-29T15:18:59.934Z,1.10
2018-12-29T15:21:27.955Z,1.20
2018-12-29T15:23:56.043Z,1.20
2018-12-29T15:26:29.420Z,1.30
2018-12-29T15:28:57.350Z,1.30
2018-12-29T15:31:24.994Z,1.30
2018-12-29T15:33:54.763Z,1.10
2018-12-29T15:36:30.991Z,1.10
2018-12-29T15:38:58.643Z,1.10
2018-12-29T15:41:26.278Z,1.00
2018-12-29T15:43:56.659Z,0.90
2018-12-29T15:46:24.262Z,1.00
2018-12-29T15:48:51.904Z,1.00
2018-12-29T15:56:48.956Z,0.90
2018-12-29T16:06:13.158Z,1.00
2018-12-29T16:09:55.780Z,1.00
2018-12-29T16:16:35.474Z,1.00
2018-12-29T16:19:20.227Z,1.00
2018-12-29T16:22:01.701Z,1.00
2018-12-29T16:24:29.981Z,1.00
2018-12-29T16:27:14.656Z,1.10
2018-12-29T16:30:21.871Z,1.00
2018-12-29T16:33:19.368Z,1.10
2018-12-29T16:35:57.214Z,1.00
2018-12-29T16:42:29.368Z,1.10
2018-12-29T16:55:39.808Z,1.20
2018-12-29T17:04:24.772Z,1.20
2018-12-29T17:06:52.756Z,1.30
2018-12-29T17:09:20.707Z,1.20
2018-12-29T17:11:52.372Z,1.30
2018-12-29T17:14:18.384Z,1.30
2018-12-29T17:16:46.100Z,1.30
2018-12-29T17:19:14.824Z,1.40
2018-12-29T17:21:42.968Z,1.40
2018-12-29T17:24:11.105Z,1.40
2018-12-29T17:26:38.894Z,1.40
2018-12-29T17:29:06.957Z,1.40
2018-12-29T17:31:34.553Z,1.50
2018-12-29T17:34:02.491Z,1.60
2018-12-29T17:36:33.429Z,1.60
2018-12-29T17:39:01.246Z,1.60
2018-12-29T17:41:31.110Z,1.60
2018-12-29T17:44:03.771Z,1.50
2018-12-29T17:46:34.667Z,1.50
2018-12-29T17:49:02.588Z,1.50
2018-12-29T17:51:30.445Z,1.50
2018-12-29T17:53:58.098Z,1.40
2018-12-29T17:56:26.285Z,1.40
2018-12-29T17:58:54.222Z,1.50
2018-12-29T18:01:24.917Z,1.50
2018-12-29T18:03:52.543Z,1.60
2018-12-29T18:06:26.235Z,1.60
2018-12-29T18:08:54.393Z,1.60
2018-12-29T18:11:44.994Z,1.60
2018-12-29T18:14:13.267Z,1.60
2018-12-29T18:16:41.066Z,1.70
2018-12-29T18:19:09.773Z,1.60
2018-12-29T18:21:40.801Z,1.70
2018-12-29T18:24:08.380Z,1.70
2018-12-29T18:26:37.075Z,1.80
2018-12-29T18:29:05.075Z,1.80
2018-12-29T18:31:32.745Z,1.80
2018-12-29T18:34:00.440Z,1.80
2018-12-29T18:36:31.106Z,1.80
2018-12-29T18:38:58.485Z,1.90
2018-12-29T18:41:29.031Z,1.90
2018-12-29T18:43:58.288Z,1.90
2018-12-29T18:46:25.912Z,1.90
2018-12-29T18:48:53.708Z,1.90
2018-12-29T18:51:24.637Z,2.00
2018-12-29T18:53:52.274Z,2.00
2018-12-29T18:56:22.641Z,2.00
2018-12-29T18:58:52.895Z,2.00
2018-12-29T19:01:20.526Z,2.00
2018-12-29T19:03:48.536Z,2.10
2018-12-29T19:06:16.217Z,2.20
2018-12-29T19:08:44.842Z,2.20
2018-12-29T19:11:12.714Z,2.10
2018-12-29T19:13:45.291Z,2.10
2018-12-29T19:16:22.533Z,2.10
2018-12-29T19:18:52.822Z,2.00
2018-12-29T19:21:21.225Z,2.00
2018-12-29T19:23:51.952Z,2.00
2018-12-29T19:26:19.750Z,2.00
2018-12-29T19:28:48.071Z,1.90
2018-12-29T19:31:16.307Z,1.90
2018-12-29T19:33:44.211Z,1.90
2018-12-29T19:36:11.993Z,1.90
2018-12-29T19:38:41.069Z,1.90
2018-12-29T19:41:10.876Z,1.90
2018-12-29T19:43:43.943Z,1.90
2018-12-29T19:46:13.931Z,2.00
2018-12-29T19:48:41.637Z,1.90
2018-12-29T19:51:09.564Z,2.00
2018-12-29T19:53:37.922Z,2.10
2018-12-29T19:56:11.917Z,2.10
2018-12-29T19:58:40.899Z,2.10
2018-12-29T20:01:09.924Z,2.10
2018-12-29T20:03:37.797Z,2.10
2018-12-29T20:06:11.153Z,2.10
2018-12-29T20:08:39.324Z,2.10
2018-12-29T20:11:11.022Z,2.10
2018-12-29T20:13:41.990Z,2.10
2018-12-29T20:16:10.647Z,2.10
2018-12-29T20:18:40.314Z,2.10
2018-12-29T20:21:09.485Z,2.10
2018-12-29T20:23:37.223Z,2.10
2018-12-29T20:26:05.236Z,2.00
2018-12-29T20:28:33.953Z,2.00
2018-12-29T20:31:01.514Z,2.00
2018-12-29T20:33:29.391Z,2.00
2018-12-29T20:35:59.758Z,2.00
2018-12-29T20:38:31.963Z,2.00
2018-12-29T20:41:00.003Z,2.00
2018-12-29T20:43:36.407Z,2.00
2018-12-29T20:46:04.307Z,2.00
2018-12-29T20:48:43.283Z,2.00
2018-12-29T20:51:11.666Z,2.00
2018-12-29T20:53:41.563Z,2.00
2018-12-29T20:56:09.337Z,2.00
2018-12-29T20:58:39.128Z,2.00
2018-12-29T21:01:06.738Z,2.00
2018-12-29T21:03:34.400Z,2.00
2018-12-29T21:06:05.044Z,2.00
2018-12-29T21:08:33.057Z,2.00
2018-12-29T21:11:00.861Z,2.00
2018-12-29T21:13:28.784Z,2.10
2018-12-29T21:15:59.054Z,2.10
2018-12-29T21:18:29.055Z,2.10
2018-12-29T21:20:56.818Z,2.10
2018-12-29T21:23:24.440Z,2.10
2018-12-29T21:25:52.057Z,2.10
2018-12-29T21:28:22.205Z,2.10
2018-12-29T21:30:49.842Z,2.10
2018-12-29T21:33:19.269Z,2.10
2018-12-29T21:35:47.542Z,2.20
2018-12-29T21:38:15.150Z,2.20
2018-12-29T21:40:42.809Z,2.20
2018-12-29T21:43:10.688Z,2.20
2018-12-29T21:45:45.224Z,2.20
2018-12-29T21:48:13.082Z,2.30
2018-12-29T21:50:43.811Z,2.40
2018-12-29T21:53:13.107Z,2.30
2018-12-29T21:55:43.945Z,2.30
2018-12-29T21:58:11.725Z,2.40
2018-12-29T22:00:39.381Z,2.30
2018-12-29T22:03:07.644Z,2.40
2018-12-29T22:05:37.517Z,2.40
2018-12-29T22:08:05.169Z,2.40
2018-12-29T22:10:33.093Z,2.40
2018-12-29T22:13:03.611Z,2.50
2018-12-29T22:15:34.260Z,2.50
2018-12-29T22:18:01.925Z,2.50
2018-12-29T22:20:33.345Z,2.50
2018-12-29T22:23:05.181Z,2.50
2018-12-29T22:25:35.818Z,2.60
2018-12-29T22:28:03.646Z,2.60
2018-12-29T22:30:38.417Z,2.60
2018-12-29T22:33:07.002Z,2.60
2018-12-29T22:35:34.867Z,2.60
2018-12-29T22:38:02.883Z,2.60
2018-12-29T22:40:33.572Z,2.60
2018-12-29T22:43:01.231Z,2.60
2018-12-29T22:45:28.930Z,2.60
2018-12-29T22:47:56.794Z,2.60
2018-12-29T22:50:24.430Z,2.60
2018-12-29T22:52:55.444Z,2.60
2018-12-29T22:55:23.383Z,2.70
2018-12-29T22:57:51.290Z,2.70
2018-12-29T23:00:26.127Z,2.80
2018-12-29T23:02:53.711Z,2.80
2018-12-29T23:05:24.048Z,2.90
2018-12-29T23:07:51.694Z,2.90
2018-12-29T23:10:24.727Z,2.90
2018-12-29T23:12:52.863Z,2.90
2018-12-29T23:15:26.443Z,3.00
2018-12-29T23:17:57.576Z,3.00
2018-12-29T23:20:27.996Z,3.10
2018-12-29T23:22:55.669Z,3.10
2018-12-29T23:25:23.334Z,3.00
2018-12-29T23:27:50.987Z,3.00
2018-12-29T23:30:20.242Z,3.10
2018-12-29T23:32:51.877Z,3.10
2018-12-29T23:35:19.651Z,3.20
2018-12-29T23:37:50.566Z,3.20
2018-12-29T23:40:18.162Z,3.30
2018-12-29T23:43:00.528Z,3.30
2018-12-29T23:45:29.796Z,3.40
2018-12-29T23:47:58.101Z,3.40
2018-12-29T23:50:25.954Z,3.50
2018-12-29T23:53:01.198Z,3.70
2018-12-29T23:55:29.118Z,3.60
2018-12-29T23:57:56.802Z,3.70
